North Eastham, Massachusetts
Current Conditions -  °F | °C
As of 10:52 AM on Wednesday 28 Jan 2015 (Local Time) from KCQX Reporting Station
Overcast Overcast  
Wind Chill: 13°   Ceiling: 1900
Heat Index: 22°   Visibility: 9mi
Dew Point: 16°   Wind: 8mph
Humidity: 78%   Direction: 310°NW
Pressure: 29.91"   Gusts: 17mph
Location:  41.85°N, 70°W
Report Text: KCQX 281552Z AUTO 31007G15KT 9SM BKN019 OVC024 M06/M09 A2991 RMK AO2 SNE48 SLP131 P0001 T10561089
Loading
Personal Weather Stations






























Interactive Weather Map New forecast layout! Learn more

10-Day Weather Forecast

Advertisements
Track Severe Weather on mobile